createdAt,value
2018-09-29T00:00:29.025Z,102318.00
2018-09-29T00:02:58.191Z,102315.00
2018-09-29T00:05:27.024Z,102320.00
2018-09-29T00:07:55.852Z,102329.00
2018-09-29T00:10:24.647Z,102339.00
2018-09-29T00:12:53.508Z,102345.00
2018-09-29T00:15:22.319Z,102347.00
2018-09-29T00:17:51.122Z,102342.00
2018-09-29T00:20:19.956Z,102347.00
2018-09-29T00:22:48.771Z,102344.00
2018-09-29T00:25:17.773Z,102330.00
2018-09-29T00:27:46.607Z,102341.00
2018-09-29T00:30:15.403Z,102350.00
2018-09-29T00:32:44.242Z,102363.00
2018-09-29T00:35:13.046Z,102347.00
2018-09-29T00:37:41.860Z,102356.00
2018-09-29T00:40:10.741Z,102354.00
2018-09-29T00:42:39.602Z,102366.00
2018-09-29T00:45:08.663Z,102355.00
2018-09-29T00:47:38.024Z,102362.00
2018-09-29T00:50:08.150Z,102361.00
2018-09-29T00:52:36.971Z,102362.00
2018-09-29T00:55:06.989Z,102368.00
2018-09-29T00:57:35.833Z,102366.00
2018-09-29T01:00:04.726Z,102365.00
2018-09-29T01:02:33.572Z,102373.00
2018-09-29T01:05:02.393Z,102382.00
2018-09-29T01:07:31.221Z,102376.00
2018-09-29T01:10:00.274Z,102374.00
2018-09-29T01:12:29.070Z,102370.00
2018-09-29T01:14:57.870Z,102373.00
2018-09-29T01:17:26.683Z,102367.00
2018-09-29T01:19:55.593Z,102364.00
2018-09-29T01:22:24.429Z,102361.00
2018-09-29T01:24:53.303Z,102365.00
2018-09-29T01:27:22.096Z,102358.00
2018-09-29T01:29:50.915Z,102355.00
2018-09-29T01:32:20.055Z,102365.00
2018-09-29T01:34:48.870Z,102358.00
2018-09-29T01:37:17.740Z,102366.00
2018-09-29T01:39:46.570Z,102356.00
2018-09-29T01:42:15.442Z,102355.00
2018-09-29T01:44:44.222Z,102359.00
2018-09-29T01:47:13.235Z,102374.00
2018-09-29T01:49:42.532Z,102374.00
2018-09-29T01:52:11.354Z,102373.00
2018-09-29T01:54:41.009Z,102378.00
2018-09-29T01:57:09.810Z,102388.00
2018-09-29T01:59:38.630Z,102388.00
2018-09-29T02:02:07.509Z,102395.00
2018-09-29T02:04:36.345Z,102394.00
2018-09-29T02:07:05.168Z,102390.00
2018-09-29T02:09:34.030Z,102386.00
2018-09-29T02:12:03.002Z,102378.00
2018-09-29T02:14:31.813Z,102383.00
2018-09-29T02:17:00.868Z,102377.00
2018-09-29T02:19:29.672Z,102381.00
2018-09-29T02:21:58.474Z,102381.00
2018-09-29T02:24:27.294Z,102286.00
2018-09-29T02:26:56.093Z,102391.00
2018-09-29T02:29:24.910Z,102390.00
2018-09-29T02:31:53.744Z,102391.00
2018-09-29T02:34:22.561Z,102392.00
2018-09-29T02:36:51.359Z,102394.00
2018-09-29T02:39:20.355Z,102394.00
2018-09-29T02:41:49.172Z,102391.00
2018-09-29T02:44:18.008Z,102404.00
2018-09-29T02:46:46.820Z,102395.00
2018-09-29T02:49:15.611Z,102403.00
2018-09-29T02:51:44.895Z,102403.00
2018-09-29T02:54:13.710Z,102408.00
2018-09-29T02:56:42.583Z,102410.00
2018-09-29T02:59:11.375Z,102400.00
2018-09-29T03:01:40.566Z,102404.00
2018-09-29T03:04:09.352Z,102413.00
2018-09-29T03:06:38.199Z,102403.00
2018-09-29T03:09:07.948Z,102416.00
2018-09-29T03:11:36.797Z,102413.00
2018-09-29T03:14:05.858Z,102419.00
2018-09-29T03:16:34.663Z,102414.00
2018-09-29T03:19:03.526Z,102412.00
2018-09-29T03:21:32.291Z,102416.00
2018-09-29T03:24:01.667Z,102423.00
2018-09-29T03:26:30.466Z,102420.00
2018-09-29T03:28:59.266Z,102421.00
2018-09-29T03:31:28.216Z,102428.00
2018-09-29T03:33:56.941Z,102424.00
2018-09-29T03:36:25.778Z,102428.00
2018-09-29T03:38:54.578Z,102425.00
2018-09-29T03:41:23.395Z,102429.00
2018-09-29T03:43:52.222Z,102436.00
2018-09-29T03:46:21.527Z,102426.00
2018-09-29T03:48:50.339Z,102430.00
2018-09-29T03:51:19.175Z,102433.00
2018-09-29T03:53:48.426Z,102437.00
2018-09-29T03:56:17.216Z,102437.00
2018-09-29T03:58:46.014Z,102427.00
2018-09-29T04:01:14.843Z,102442.00
2018-09-29T04:03:43.823Z,102442.00
2018-09-29T04:06:12.650Z,102439.00
2018-09-29T04:08:41.950Z,102439.00
2018-09-29T04:11:10.785Z,102444.00
2018-09-29T04:13:39.603Z,102450.00
2018-09-29T04:16:08.532Z,102450.00
2018-09-29T04:18:37.368Z,102452.00
2018-09-29T04:21:06.282Z,102447.00
2018-09-29T04:23:35.093Z,102446.00
2018-09-29T04:26:03.917Z,102458.00
2018-09-29T04:28:32.742Z,102459.00
2018-09-29T04:31:01.957Z,102450.00
2018-09-29T04:33:30.817Z,102462.00
2018-09-29T04:35:59.608Z,102459.00
2018-09-29T04:38:28.411Z,102469.00
2018-09-29T04:40:57.243Z,102466.00
2018-09-29T04:43:26.069Z,102461.00
2018-09-29T04:45:54.935Z,102457.00
2018-09-29T04:48:23.761Z,102461.00
2018-09-29T04:50:52.583Z,102459.00
2018-09-29T04:53:21.686Z,102457.00
2018-09-29T04:55:50.943Z,102462.00
2018-09-29T04:58:19.786Z,102468.00
2018-09-29T05:00:48.632Z,102469.00
2018-09-29T05:03:17.500Z,102469.00
2018-09-29T05:05:46.315Z,102474.00
2018-09-29T05:08:15.155Z,102476.00
2018-09-29T05:10:43.964Z,102476.00
2018-09-29T05:13:12.800Z,102480.00
2018-09-29T05:15:41.731Z,102488.00
2018-09-29T05:18:10.554Z,102475.00
2018-09-29T05:20:39.375Z,102470.00
2018-09-29T05:23:08.230Z,102471.00
2018-09-29T05:25:37.008Z,102473.00
2018-09-29T05:28:05.849Z,102477.00
2018-09-29T05:30:34.707Z,102473.00
2018-09-29T05:33:03.594Z,102483.00
2018-09-29T05:35:32.399Z,102489.00
2018-09-29T05:38:01.620Z,102501.00
2018-09-29T05:40:30.431Z,102490.00
2018-09-29T05:42:59.227Z,102491.00
2018-09-29T05:45:28.045Z,102497.00
2018-09-29T05:47:56.911Z,102497.00
2018-09-29T05:50:25.755Z,102503.00
2018-09-29T05:52:54.588Z,102498.00
2018-09-29T05:55:23.465Z,102502.00
2018-09-29T05:57:52.760Z,102498.00
2018-09-29T06:00:21.745Z,102501.00
2018-09-29T06:02:50.522Z,102501.00
2018-09-29T06:05:19.362Z,102508.00
2018-09-29T06:07:48.234Z,102510.00
2018-09-29T06:10:17.101Z,102508.00
2018-09-29T06:12:45.981Z,102505.00
2018-09-29T06:15:14.810Z,102514.00
2018-09-29T06:17:43.606Z,102506.00
2018-09-29T06:20:12.971Z,102503.00
2018-09-29T06:22:41.893Z,102505.00
2018-09-29T06:25:10.695Z,102505.00
2018-09-29T06:27:39.482Z,102520.00
2018-09-29T06:30:08.346Z,102529.00
2018-09-29T06:32:37.190Z,102528.00
2018-09-29T06:35:06.088Z,102535.00
2018-09-29T06:37:34.987Z,102536.00
2018-09-29T06:40:03.875Z,102545.00
2018-09-29T06:42:32.707Z,102544.00
2018-09-29T06:45:01.984Z,102549.00
2018-09-29T06:47:33.722Z,102557.00
2018-09-29T06:50:02.570Z,102552.00
2018-09-29T06:52:31.395Z,102564.00
2018-09-29T06:55:00.192Z,102569.00
2018-09-29T06:57:29.001Z,102561.00
2018-09-29T06:59:58.306Z,102572.00
2018-09-29T07:02:27.183Z,102564.00
2018-09-29T07:04:57.213Z,102561.00
2018-09-29T07:07:26.190Z,102560.00
2018-09-29T07:09:55.105Z,102568.00
2018-09-29T07:12:23.952Z,102561.00
2018-09-29T07:14:52.839Z,102567.00
2018-09-29T07:17:21.671Z,102564.00
2018-09-29T07:19:50.505Z,102570.00
2018-09-29T07:22:19.344Z,102559.00
2018-09-29T07:24:48.185Z,102556.00
2018-09-29T07:27:17.286Z,102560.00
2018-09-29T07:29:46.142Z,102568.00
2018-09-29T07:32:14.961Z,102574.00
2018-09-29T07:34:43.798Z,102575.00
2018-09-29T07:37:12.609Z,102577.00
2018-09-29T07:39:41.444Z,102571.00
2018-09-29T07:42:10.269Z,102577.00
2018-09-29T07:44:39.063Z,102572.00
2018-09-29T07:47:07.913Z,102559.00
2018-09-29T07:49:37.039Z,102564.00
2018-09-29T07:52:06.061Z,102569.00
2018-09-29T07:54:34.870Z,102565.00
2018-09-29T07:57:03.742Z,102551.00
2018-09-29T07:59:32.612Z,102558.00
2018-09-29T08:02:01.870Z,102559.00
2018-09-29T08:04:31.624Z,102562.00
2018-09-29T08:07:00.443Z,102554.00
2018-09-29T08:09:29.268Z,102558.00
2018-09-29T08:11:58.394Z,102550.00
2018-09-29T08:14:27.207Z,102555.00
2018-09-29T08:16:56.043Z,102570.00
2018-09-29T08:19:24.922Z,102572.00
2018-09-29T08:21:53.751Z,102560.00
2018-09-29T08:24:22.721Z,102564.00
2018-09-29T08:26:51.648Z,102564.00
2018-09-29T08:29:20.484Z,102566.00
2018-09-29T08:31:49.373Z,102567.00
2018-09-29T08:34:18.735Z,102558.00
2018-09-29T08:36:47.560Z,102575.00
2018-09-29T08:39:16.398Z,102573.00
2018-09-29T08:41:45.218Z,102569.00
2018-09-29T08:44:14.072Z,102568.00
2018-09-29T08:46:42.916Z,102573.00
2018-09-29T08:49:11.704Z,102575.00
2018-09-29T08:51:40.538Z,102577.00
2018-09-29T08:54:09.427Z,102576.00
2018-09-29T08:56:38.503Z,102580.00
2018-09-29T08:59:07.332Z,102571.00
2018-09-29T09:01:36.238Z,102574.00
2018-09-29T09:04:05.741Z,102568.00
2018-09-29T09:06:34.491Z,102574.00
2018-09-29T09:09:03.633Z,102576.00
2018-09-29T09:11:32.474Z,102584.00
2018-09-29T09:14:01.282Z,102577.00
2018-09-29T09:16:30.154Z,102583.00
2018-09-29T09:18:59.137Z,102579.00
2018-09-29T09:21:27.947Z,102587.00
2018-09-29T09:23:56.824Z,102586.00
2018-09-29T09:26:25.951Z,102582.00
2018-09-29T09:28:54.787Z,102584.00
2018-09-29T09:31:23.676Z,102582.00
2018-09-29T09:33:52.510Z,102571.00
2018-09-29T09:36:21.357Z,102573.00
2018-09-29T09:38:50.204Z,102573.00
2018-09-29T09:41:19.195Z,102572.00
2018-09-29T09:43:48.995Z,102574.00
2018-09-29T09:46:17.854Z,102568.00
2018-09-29T09:48:46.655Z,102575.00
2018-09-29T09:51:15.497Z,102570.00
2018-09-29T09:53:44.328Z,102564.00
2018-09-29T09:56:13.170Z,102568.00
2018-09-29T09:58:42.036Z,102565.00
2018-09-29T10:01:16.351Z,102580.00
2018-09-29T10:03:45.169Z,102563.00
2018-09-29T10:06:14.388Z,102571.00
2018-09-29T10:08:43.223Z,102570.00
2018-09-29T10:11:12.074Z,102569.00
2018-09-29T10:13:40.899Z,102584.00
2018-09-29T10:16:09.766Z,102577.00
2018-09-29T10:18:38.595Z,102574.00
2018-09-29T10:21:07.425Z,102569.00
2018-09-29T10:23:36.611Z,102574.00
2018-09-29T10:26:05.463Z,102561.00
2018-09-29T10:28:34.269Z,102564.00
2018-09-29T10:31:03.182Z,102566.00
2018-09-29T10:33:32.015Z,102563.00
2018-09-29T10:36:00.817Z,102573.00
2018-09-29T10:38:29.644Z,102556.00
2018-09-29T10:40:58.461Z,102559.00
2018-09-29T10:43:27.299Z,102552.00
2018-09-29T10:45:59.288Z,102553.00
2018-09-29T10:48:28.154Z,102553.00
2018-09-29T10:50:56.991Z,102552.00
2018-09-29T10:53:25.849Z,102539.00
2018-09-29T10:55:54.654Z,102552.00
2018-09-29T10:58:23.479Z,102554.00
2018-09-29T11:00:52.286Z,102546.00
2018-09-29T11:03:21.118Z,102540.00
2018-09-29T11:05:50.393Z,102536.00
2018-09-29T11:08:19.714Z,102532.00
2018-09-29T11:10:48.544Z,102530.00
2018-09-29T11:13:17.382Z,102528.00
2018-09-29T11:15:46.207Z,102524.00
2018-09-29T11:18:15.017Z,102516.00
2018-09-29T11:20:43.952Z,102517.00
2018-09-29T11:23:12.786Z,102503.00
2018-09-29T11:25:41.609Z,102504.00
2018-09-29T11:28:13.868Z,102502.00
2018-09-29T11:30:42.636Z,102498.00
2018-09-29T11:33:11.425Z,102501.00
2018-09-29T11:35:40.256Z,102487.00
2018-09-29T11:38:09.075Z,102496.00
2018-09-29T11:40:37.980Z,102483.00
2018-09-29T11:43:07.070Z,102483.00
2018-09-29T11:45:35.885Z,102475.00
2018-09-29T11:48:04.682Z,102481.00
2018-09-29T11:50:33.803Z,102470.00
2018-09-29T11:53:02.608Z,102478.00
2018-09-29T11:55:31.692Z,102479.00
2018-09-29T11:58:00.510Z,102473.00
2018-09-29T12:00:29.361Z,102454.00
2018-09-29T12:02:58.168Z,102467.00
2018-09-29T12:05:27.003Z,102458.00
2018-09-29T12:07:55.905Z,102451.00
2018-09-29T12:10:28.630Z,102455.00
2018-09-29T12:12:57.423Z,102440.00
2018-09-29T12:15:26.233Z,102445.00
2018-09-29T12:17:55.050Z,102441.00
2018-09-29T12:20:24.271Z,102442.00
2018-09-29T12:22:53.086Z,102426.00
2018-09-29T12:25:21.926Z,102433.00
2018-09-29T12:27:50.726Z,102430.00
2018-09-29T12:30:19.577Z,102438.00
2018-09-29T12:32:48.517Z,102427.00
2018-09-29T12:35:17.425Z,102424.00
2018-09-29T12:37:46.261Z,102425.00
2018-09-29T12:40:15.110Z,102427.00
2018-09-29T12:42:44.051Z,102414.00
2018-09-29T12:45:12.798Z,102397.00
2018-09-29T12:47:41.711Z,102399.00
2018-09-29T12:50:10.488Z,102388.00
2018-09-29T12:52:39.358Z,102389.00
2018-09-29T12:55:08.898Z,102389.00
2018-09-29T12:57:37.745Z,102389.00
2018-09-29T13:00:07.899Z,102375.00
2018-09-29T13:02:36.808Z,102375.00
2018-09-29T13:05:05.748Z,102381.00
2018-09-29T13:07:34.551Z,102386.00
2018-09-29T13:10:03.407Z,102376.00
2018-09-29T13:12:32.837Z,102376.00
2018-09-29T13:15:01.628Z,102370.00
2018-09-29T13:17:30.724Z,102371.00
2018-09-29T13:19:59.636Z,102368.00
2018-09-29T13:22:28.449Z,102370.00
2018-09-29T13:24:57.304Z,102367.00
2018-09-29T13:27:26.150Z,102361.00
2018-09-29T13:29:55.005Z,102366.00
2018-09-29T13:32:23.983Z,102368.00
2018-09-29T13:34:53.062Z,102358.00
2018-09-29T13:37:21.963Z,102353.00
2018-09-29T13:39:51.055Z,102355.00
2018-09-29T13:42:19.854Z,102345.00
2018-09-29T13:44:48.646Z,102334.00
2018-09-29T13:47:17.599Z,102327.00
2018-09-29T13:49:46.423Z,102333.00
2018-09-29T13:52:15.255Z,102332.00
2018-09-29T13:54:44.120Z,102317.00
2018-09-29T13:57:12.924Z,102313.00
2018-09-29T13:59:41.767Z,102315.00
2018-09-29T14:02:10.792Z,102323.00
2018-09-29T14:04:39.659Z,102313.00
2018-09-29T14:07:08.505Z,102313.00
2018-09-29T14:09:37.338Z,102293.00
2018-09-29T14:12:06.331Z,102300.00
2018-09-29T14:14:35.566Z,102300.00
2018-09-29T14:17:04.390Z,102295.00
2018-09-29T14:19:33.505Z,102293.00
2018-09-29T14:22:02.299Z,102287.00
2018-09-29T14:24:31.567Z,102284.00
2018-09-29T14:27:00.404Z,102283.00
2018-09-29T14:29:29.292Z,102272.00
2018-09-29T14:31:58.188Z,102283.00
2018-09-29T14:34:26.988Z,102278.00
2018-09-29T14:36:55.878Z,102275.00
2018-09-29T14:39:24.704Z,102282.00
2018-09-29T14:41:53.544Z,102271.00
2018-09-29T14:44:22.345Z,102265.00
2018-09-29T14:46:51.632Z,102260.00
2018-09-29T14:49:20.464Z,102258.00
2018-09-29T14:51:49.310Z,102261.00
2018-09-29T14:54:18.171Z,102262.00
2018-09-29T14:56:46.998Z,102252.00
2018-09-29T14:59:15.831Z,102258.00
2018-09-29T15:01:44.680Z,102262.00
2018-09-29T15:04:13.562Z,102262.00
2018-09-29T15:06:42.379Z,102255.00
2018-09-29T15:09:12.859Z,102252.00
2018-09-29T15:11:42.009Z,102247.00
2018-09-29T15:14:11.319Z,102245.00
2018-09-29T15:16:40.583Z,102242.00
2018-09-29T15:19:09.408Z,102253.00
2018-09-29T15:21:38.218Z,102255.00
2018-09-29T15:24:07.108Z,102254.00
2018-09-29T15:26:35.942Z,102252.00
2018-09-29T15:29:04.752Z,102251.00
2018-09-29T15:31:34.112Z,102246.00
2018-09-29T15:34:02.951Z,102236.00
2018-09-29T15:36:31.788Z,102241.00
2018-09-29T15:39:00.606Z,102238.00
2018-09-29T15:41:29.443Z,102242.00
2018-09-29T15:43:58.369Z,102235.00
2018-09-29T15:46:27.184Z,102231.00
2018-09-29T15:48:56.001Z,102240.00
2018-09-29T15:51:24.851Z,102248.00
2018-09-29T15:53:54.030Z,102243.00
2018-09-29T15:56:22.840Z,102237.00
2018-09-29T15:58:51.641Z,102239.00
2018-09-29T16:01:20.464Z,102235.00
2018-09-29T16:03:49.351Z,102241.00
2018-09-29T16:06:18.166Z,102232.00
2018-09-29T16:08:47.032Z,102226.00
2018-09-29T16:11:15.862Z,102231.00
2018-09-29T16:13:44.802Z,102249.00
2018-09-29T16:16:14.044Z,102234.00
2018-09-29T16:18:43.301Z,102241.00
2018-09-29T16:21:12.118Z,102242.00
2018-09-29T16:23:40.931Z,102243.00
2018-09-29T16:26:09.761Z,102246.00
2018-09-29T16:28:38.559Z,102244.00
2018-09-29T16:31:07.861Z,102237.00
2018-09-29T16:33:36.809Z,102242.00
2018-09-29T16:36:05.878Z,102242.00
2018-09-29T16:38:34.799Z,102245.00
2018-09-29T16:41:03.629Z,102238.00
2018-09-29T16:43:32.551Z,102235.00
2018-09-29T16:46:01.359Z,102238.00
2018-09-29T16:48:30.168Z,102249.00
2018-09-29T16:50:59.055Z,102237.00
2018-09-29T16:53:27.928Z,102238.00
2018-09-29T16:56:03.342Z,102245.00
2018-09-29T16:58:32.259Z,102246.00
2018-09-29T17:01:01.255Z,102249.00
2018-09-29T17:03:30.096Z,102249.00
2018-09-29T17:05:58.968Z,102248.00
2018-09-29T17:08:27.866Z,102246.00
2018-09-29T17:10:56.687Z,102244.00
2018-09-29T17:13:25.637Z,102252.00
2018-09-29T17:15:54.543Z,102248.00
2018-09-29T17:18:23.411Z,102248.00
2018-09-29T17:20:52.909Z,102237.00
2018-09-29T17:23:21.750Z,102245.00
2018-09-29T17:25:50.683Z,102253.00
2018-09-29T17:28:19.540Z,102251.00
2018-09-29T17:30:48.361Z,102242.00
2018-09-29T17:33:17.165Z,102255.00
2018-09-29T17:35:45.997Z,102248.00
2018-09-29T17:38:14.790Z,102243.00
2018-09-29T17:40:43.693Z,102249.00
2018-09-29T17:43:12.831Z,102252.00
2018-09-29T17:45:41.697Z,102244.00
2018-09-29T17:48:10.572Z,102241.00
2018-09-29T17:50:39.440Z,102253.00
2018-09-29T17:53:08.285Z,102244.00
2018-09-29T17:55:37.239Z,102237.00
2018-09-29T17:58:06.045Z,102237.00
2018-09-29T18:00:34.881Z,102237.00
2018-09-29T18:03:03.673Z,102232.00
2018-09-29T18:05:32.600Z,102233.00
2018-09-29T18:08:01.411Z,102227.00
2018-09-29T18:10:30.310Z,102224.00
2018-09-29T18:12:59.166Z,102229.00
2018-09-29T18:15:27.994Z,102230.00
2018-09-29T18:17:56.840Z,102235.00
2018-09-29T18:20:25.677Z,102225.00
2018-09-29T18:22:54.879Z,102234.00
2018-09-29T18:25:23.692Z,102233.00
2018-09-29T18:27:52.896Z,102236.00
2018-09-29T18:30:21.673Z,102238.00
2018-09-29T18:32:50.499Z,102234.00
2018-09-29T18:35:19.385Z,102231.00
2018-09-29T18:37:48.210Z,102236.00
2018-09-29T18:40:17.045Z,102229.00
2018-09-29T18:42:45.888Z,102230.00
2018-09-29T18:45:14.855Z,102230.00
2018-09-29T18:47:43.727Z,102229.00
2018-09-29T18:50:12.972Z,102219.00
2018-09-29T18:52:41.813Z,102209.00
2018-09-29T18:55:10.614Z,102213.00
2018-09-29T18:57:39.417Z,102209.00
2018-09-29T19:00:09.233Z,102220.00
2018-09-29T19:02:38.051Z,102219.00
2018-09-29T19:05:08.803Z,102207.00
2018-09-29T19:07:37.623Z,102208.00
2018-09-29T19:10:08.558Z,102206.00
2018-09-29T19:12:37.704Z,102199.00
2018-09-29T19:15:07.687Z,102216.00
2018-09-29T19:17:36.479Z,102213.00
2018-09-29T19:20:05.348Z,102206.00
2018-09-29T19:22:34.138Z,102193.00
2018-09-29T19:25:03.508Z,102205.00
2018-09-29T19:27:32.354Z,102200.00
2018-09-29T19:30:01.208Z,102194.00
2018-09-29T19:32:30.099Z,102191.00
2018-09-29T19:34:59.259Z,102181.00
2018-09-29T19:37:28.124Z,102189.00
2018-09-29T19:39:56.992Z,102187.00
2018-09-29T19:42:25.858Z,102185.00
2018-09-29T19:44:54.667Z,102176.00
2018-09-29T19:47:24.046Z,102191.00
2018-09-29T19:49:52.948Z,102182.00
2018-09-29T19:52:21.805Z,102184.00
2018-09-29T19:54:50.608Z,102176.00
2018-09-29T19:57:20.098Z,102176.00
2018-09-29T19:59:48.934Z,102179.00
2018-09-29T20:02:17.763Z,102171.00
2018-09-29T20:04:46.624Z,102164.00
2018-09-29T20:07:15.454Z,102167.00
2018-09-29T20:09:44.295Z,102159.00
2018-09-29T20:12:13.108Z,102164.00
2018-09-29T20:14:41.942Z,102158.00
2018-09-29T20:17:10.761Z,102151.00
2018-09-29T20:19:39.807Z,102154.00
2018-09-29T20:22:09.739Z,102144.00
2018-09-29T20:24:38.628Z,102143.00
2018-09-29T20:27:08.227Z,102138.00
2018-09-29T20:29:37.057Z,102142.00
2018-09-29T20:32:05.858Z,102140.00
2018-09-29T20:34:34.744Z,102143.00
2018-09-29T20:37:03.792Z,102135.00
2018-09-29T20:39:32.614Z,102142.00
2018-09-29T20:42:01.618Z,102133.00
2018-09-29T20:44:30.505Z,102145.00
2018-09-29T20:46:59.308Z,102133.00
2018-09-29T20:49:28.118Z,102132.00
2018-09-29T20:51:57.006Z,102117.00
2018-09-29T20:54:25.825Z,102125.00
2018-09-29T20:56:54.650Z,102119.00
2018-09-29T20:59:23.466Z,102126.00
2018-09-29T21:01:52.275Z,102105.00
2018-09-29T21:04:21.195Z,102113.00
2018-09-29T21:06:50.039Z,102126.00
2018-09-29T21:09:18.901Z,102122.00
2018-09-29T21:11:47.737Z,102112.00
2018-09-29T21:14:16.550Z,102118.00
2018-09-29T21:16:45.375Z,102115.00
2018-09-29T21:19:14.189Z,102106.00
2018-09-29T21:21:43.013Z,102101.00
2018-09-29T21:24:11.867Z,102098.00
2018-09-29T21:26:40.789Z,102097.00
2018-09-29T21:29:09.904Z,102103.00
2018-09-29T21:31:38.723Z,102102.00
2018-09-29T21:34:07.863Z,102089.00
2018-09-29T21:36:36.834Z,102095.00
2018-09-29T21:39:08.040Z,102088.00
2018-09-29T21:41:36.894Z,102084.00
2018-09-29T21:44:05.988Z,102081.00
2018-09-29T21:46:34.907Z,102084.00
2018-09-29T21:49:03.776Z,102075.00
2018-09-29T21:51:32.769Z,102074.00
2018-09-29T21:54:01.570Z,102068.00
2018-09-29T21:56:30.406Z,102064.00
2018-09-29T21:58:59.228Z,102058.00
2018-09-29T22:01:33.063Z,102063.00
2018-09-29T22:04:08.335Z,102051.00
2018-09-29T22:06:37.365Z,102049.00
2018-09-29T22:09:08.027Z,102042.00
2018-09-29T22:11:37.222Z,102038.00
2018-09-29T22:14:06.078Z,102043.00
2018-09-29T22:16:34.954Z,102045.00
2018-09-29T22:19:03.802Z,102046.00
2018-09-29T22:21:32.611Z,102041.00
2018-09-29T22:24:01.463Z,102034.00
2018-09-29T22:26:30.265Z,102044.00
2018-09-29T22:28:59.186Z,102040.00
2018-09-29T22:31:28.543Z,102031.00
2018-09-29T22:33:57.363Z,102036.00
2018-09-29T22:36:26.181Z,102025.00
2018-09-29T22:38:55.014Z,102020.00
2018-09-29T22:41:24.110Z,102015.00
2018-09-29T22:43:52.959Z,102010.00
2018-09-29T22:46:21.785Z,102006.00
2018-09-29T22:48:50.875Z,102010.00
2018-09-29T22:51:19.983Z,102007.00
2018-09-29T22:53:48.799Z,102002.00
2018-09-29T22:56:17.622Z,102009.00
2018-09-29T22:58:46.516Z,101996.00
2018-09-29T23:01:15.329Z,101988.00
2018-09-29T23:03:44.224Z,101995.00
2018-09-29T23:06:13.178Z,101995.00
2018-09-29T23:08:41.978Z,101993.00
2018-09-29T23:11:10.823Z,101996.00
2018-09-29T23:13:39.772Z,101990.00
2018-09-29T23:16:08.863Z,101992.00
2018-09-29T23:18:37.671Z,101981.00
2018-09-29T23:21:06.893Z,101987.00
2018-09-29T23:23:35.698Z,101994.00
2018-09-29T23:26:04.532Z,101986.00
2018-09-29T23:28:33.393Z,101990.00
2018-09-29T23:31:02.208Z,101997.00
2018-09-29T23:33:31.377Z,101994.00
2018-09-29T23:36:00.303Z,101990.00
2018-09-29T23:38:29.093Z,101987.00
2018-09-29T23:40:57.916Z,101982.00
2018-09-29T23:43:26.727Z,101977.00
2018-09-29T23:45:55.545Z,101971.00
2018-09-29T23:48:24.354Z,101967.00
2018-09-29T23:50:53.199Z,101973.00
2018-09-29T23:53:22.022Z,101969.00
2018-09-29T23:55:50.844Z,101972.00
2018-09-29T23:58:20.132Z,101966.00
